createdAt,value
2019-05-12T00:01:38.799Z,100078.34
2019-05-12T00:07:43.167Z,100074.06
2019-05-12T00:13:47.901Z,100077.44
2019-05-12T00:19:52.544Z,100091.66
2019-05-12T00:25:58.727Z,100090.00
2019-05-12T00:32:03.631Z,100100.69
2019-05-12T00:38:09.327Z,100097.32
2019-05-12T00:44:14.155Z,100099.36
2019-05-12T00:50:18.806Z,100118.62
2019-05-12T00:56:23.316Z,100124.79
2019-05-12T01:02:28.678Z,100133.91
2019-05-12T01:08:33.403Z,100147.02
2019-05-12T01:14:38.399Z,100148.23
2019-05-12T01:20:43.136Z,100159.78
2019-05-12T01:26:47.740Z,100164.09
2019-05-12T01:32:52.382Z,100167.58
2019-05-12T01:38:59.155Z,100160.61
2019-05-12T01:45:03.406Z,100177.45
2019-05-12T01:51:08.358Z,100192.74
2019-05-12T01:57:13.265Z,100213.34
2019-05-12T02:03:17.998Z,100219.13
2019-05-12T02:09:24.151Z,100226.84
2019-05-12T02:15:28.703Z,100247.07
2019-05-12T02:21:33.242Z,100258.45
2019-05-12T02:27:38.365Z,100265.59
2019-05-12T02:33:44.620Z,100281.06
2019-05-12T02:39:49.339Z,100294.22
2019-05-12T02:45:54.780Z,100294.47
2019-05-12T02:51:59.718Z,100301.25
2019-05-12T02:58:05.954Z,100305.23
2019-05-12T03:04:14.524Z,100307.78
2019-05-12T03:10:20.694Z,100322.41
2019-05-12T03:16:25.847Z,100330.73
2019-05-12T03:22:30.452Z,100340.05
2019-05-12T03:28:35.787Z,100355.55
2019-05-12T03:34:40.636Z,100353.45
2019-05-12T03:40:45.483Z,100370.17
2019-05-12T03:46:50.193Z,100383.55
2019-05-12T03:52:56.620Z,100389.90
2019-05-12T03:59:04.462Z,100402.92
2019-05-12T04:05:08.180Z,100406.06
2019-05-12T04:11:14.596Z,100413.13
2019-05-12T04:17:19.200Z,100417.75
2019-05-12T04:23:24.766Z,100426.48
2019-05-12T04:29:29.666Z,100426.64
2019-05-12T04:35:35.437Z,100436.50
2019-05-12T04:41:40.499Z,100449.44
2019-05-12T04:47:45.266Z,100452.52
2019-05-12T04:53:49.895Z,100471.58
2019-05-12T04:59:54.528Z,100478.13
2019-05-12T05:05:59.064Z,100496.66
2019-05-12T05:12:04.584Z,100503.69
2019-05-12T05:18:09.531Z,100520.08
2019-05-12T05:24:14.374Z,100521.98
2019-05-12T05:30:19.203Z,100531.84
2019-05-12T05:36:24.992Z,100538.25
2019-05-12T05:42:32.775Z,100547.36
2019-05-12T05:48:36.084Z,100568.07
2019-05-12T05:54:40.640Z,100579.52
2019-05-12T06:00:45.215Z,100582.91
2019-05-12T06:06:53.720Z,100605.37
2019-05-12T06:12:56.048Z,100594.20
2019-05-12T06:19:00.622Z,100608.55
2019-05-12T06:25:06.664Z,100596.66
2019-05-12T06:31:13.576Z,100613.81
2019-05-12T06:37:17.577Z,100623.32
2019-05-12T06:43:24.262Z,100623.40
2019-05-12T06:49:28.395Z,100630.23
2019-05-12T06:55:36.837Z,100640.89
2019-05-12T07:01:39.310Z,100654.47
2019-05-12T07:07:45.997Z,100670.08
2019-05-12T07:14:01.296Z,100673.63
2019-05-12T07:19:58.224Z,100676.73
2019-05-12T07:26:06.736Z,100673.66
2019-05-12T07:32:16.522Z,100681.42
2019-05-12T07:38:20.978Z,100689.80
2019-05-12T07:44:25.270Z,100701.20
2019-05-12T07:50:30.007Z,100703.06
2019-05-12T07:56:35.771Z,100704.34
2019-05-12T08:02:40.682Z,100703.01
2019-05-12T08:08:50.967Z,100702.03
2019-05-12T08:14:51.577Z,100717.16
2019-05-12T08:20:56.239Z,100712.92
2019-05-12T08:27:05.703Z,100708.39
2019-05-12T08:33:09.821Z,100710.23
2019-05-12T08:39:21.381Z,100704.04
2019-05-12T08:45:27.369Z,100709.52
2019-05-12T08:51:26.584Z,100718.59
2019-05-12T08:57:34.839Z,100720.75
2019-05-12T09:03:37.514Z,100723.14
2019-05-12T09:09:43.951Z,100724.89
2019-05-12T09:15:48.462Z,100740.42
2019-05-12T09:21:54.260Z,100726.70
2019-05-12T09:27:58.941Z,100730.03
2019-05-12T09:34:11.626Z,100732.57
2019-05-12T09:40:10.242Z,100742.77
2019-05-12T09:46:14.793Z,100751.58
2019-05-12T09:52:22.361Z,100753.81
2019-05-12T09:58:27.830Z,100752.05
2019-05-12T10:04:33.088Z,100760.66
2019-05-12T10:10:40.183Z,100750.72
2019-05-12T10:16:45.594Z,100764.73
2019-05-12T10:22:50.485Z,100776.27
2019-05-12T10:28:58.420Z,100771.14
2019-05-12T10:35:01.422Z,100780.59
2019-05-12T10:41:06.128Z,100772.94
2019-05-12T10:47:10.750Z,100790.63
2019-05-12T10:53:17.774Z,100784.67
2019-05-12T10:59:32.232Z,100798.20
2019-05-12T11:05:28.200Z,100798.89
2019-05-12T11:11:41.730Z,100795.28
2019-05-12T11:17:50.700Z,100795.06
2019-05-12T11:23:55.280Z,100796.98
2019-05-12T11:29:59.897Z,100804.05
2019-05-12T11:36:04.546Z,100799.30
2019-05-12T11:42:09.111Z,100796.68
2019-05-12T11:48:14.445Z,100820.34
2019-05-12T11:54:19.168Z,100817.11
2019-05-12T12:00:25.469Z,100809.27
2019-05-12T12:06:30.025Z,100822.95
2019-05-12T12:12:34.722Z,100826.81
2019-05-12T12:18:39.375Z,100827.02
2019-05-12T12:24:44.000Z,100831.35
2019-05-12T12:30:52.528Z,100826.34
2019-05-12T12:36:54.862Z,100839.94
2019-05-12T12:42:59.410Z,100835.70
2019-05-12T12:49:06.378Z,100847.43
2019-05-12T12:55:10.375Z,100847.29
2019-05-12T13:01:21.935Z,100834.77
2019-05-12T13:07:21.373Z,100843.27
2019-05-12T13:13:25.940Z,100852.27
2019-05-12T13:19:30.499Z,100855.11
2019-05-12T13:25:38.898Z,100855.09
2019-05-12T13:31:46.355Z,100860.31
2019-05-12T13:37:50.268Z,100872.72
2019-05-12T13:44:00.046Z,100868.80
2019-05-12T13:50:04.078Z,100856.17
2019-05-12T13:56:08.826Z,100855.25
2019-05-12T14:02:21.851Z,100870.36
2019-05-12T14:08:19.650Z,100856.41
2019-05-12T14:14:24.288Z,100851.20
2019-05-12T14:20:28.841Z,100873.13
2019-05-12T14:26:33.533Z,100882.91
2019-05-12T14:32:38.117Z,100886.27
2019-05-12T14:38:42.664Z,100890.75
2019-05-12T14:44:49.678Z,100894.40
2019-05-12T14:50:53.677Z,100910.10
2019-05-12T14:56:58.256Z,100893.47
2019-05-12T15:03:05.463Z,100894.35
2019-05-12T15:09:11.477Z,100903.38
2019-05-12T15:15:20.456Z,100909.02
2019-05-12T15:21:27.345Z,100906.23
2019-05-12T15:27:41.212Z,100915.34
2019-05-12T15:33:34.785Z,100919.80
2019-05-12T15:39:39.331Z,100924.58
2019-05-12T15:45:48.846Z,100930.81
2019-05-12T15:51:54.158Z,100935.22
2019-05-12T15:57:56.583Z,100951.01
2019-05-12T16:04:03.516Z,100954.19
2019-05-12T16:10:09.614Z,100953.34
2019-05-12T16:16:14.412Z,100963.28
2019-05-12T16:22:19.047Z,100970.18
2019-05-12T16:28:26.594Z,100970.36
2019-05-12T16:34:29.973Z,100966.44
2019-05-12T16:40:39.275Z,100971.84
2019-05-12T16:46:40.893Z,100971.58
2019-05-12T16:52:45.718Z,100973.59
2019-05-12T16:58:50.376Z,100985.64
2019-05-12T17:04:54.944Z,100981.44
2019-05-12T17:11:21.703Z,100986.32
2019-05-12T17:17:05.971Z,100995.34
2019-05-12T17:23:10.527Z,100990.53
2019-05-12T17:29:15.185Z,100996.14
2019-05-12T17:35:20.173Z,100986.16
2019-05-12T17:41:26.171Z,100993.25
2019-05-12T17:47:31.994Z,100991.36
2019-05-12T17:53:37.821Z,100989.72
2019-05-12T17:59:44.795Z,101000.34
2019-05-12T18:05:49.824Z,101014.35
2019-05-12T18:11:56.316Z,101018.20
2019-05-12T18:18:00.770Z,101021.33
2019-05-12T18:24:09.655Z,101025.67
2019-05-12T18:30:16.633Z,101038.03
2019-05-12T18:36:18.815Z,101044.70
2019-05-12T18:42:24.598Z,101053.41
2019-05-12T18:48:29.431Z,101068.15
2019-05-12T18:54:34.556Z,101080.44
2019-05-12T19:00:39.490Z,101078.37
2019-05-12T19:06:44.225Z,101091.48
2019-05-12T19:12:51.551Z,101099.28
2019-05-12T19:18:55.698Z,101107.78
2019-05-12T19:25:00.543Z,101116.31
2019-05-12T19:31:09.856Z,101124.18
2019-05-12T19:37:14.115Z,101135.37
2019-05-12T19:43:17.815Z,101145.20
2019-05-12T19:49:25.803Z,101153.69
2019-05-12T19:55:28.799Z,101167.12
2019-05-12T20:01:34.509Z,101167.33
2019-05-12T20:07:39.220Z,101169.84
2019-05-12T20:13:44.480Z,101175.84
2019-05-12T20:19:49.205Z,101182.77
2019-05-12T20:25:53.797Z,101188.78
2019-05-12T20:31:58.390Z,101200.45
2019-05-12T20:38:04.145Z,101208.31
2019-05-12T20:44:09.813Z,101213.30
2019-05-12T20:50:15.377Z,101223.02
2019-05-12T20:56:21.961Z,101230.02
2019-05-12T21:02:26.216Z,101236.05
2019-05-12T21:08:30.764Z,101245.68
2019-05-12T21:14:35.314Z,101245.67
2019-05-12T21:20:39.928Z,101249.61
2019-05-12T21:26:44.492Z,101249.44
2019-05-12T21:32:56.527Z,101273.42
2019-05-12T21:38:59.561Z,101270.97
2019-05-12T21:45:04.270Z,101278.36
2019-05-12T21:51:09.834Z,101289.88
2019-05-12T21:57:14.140Z,101295.72
2019-05-12T22:03:18.916Z,101299.96
2019-05-12T22:09:24.071Z,101305.00
2019-05-12T22:15:28.973Z,101315.33
2019-05-12T22:21:35.755Z,101316.61
2019-05-12T22:27:39.867Z,101320.78
2019-05-12T22:33:49.740Z,101323.25
2019-05-12T22:39:50.676Z,101328.24
2019-05-12T22:45:55.309Z,101333.23
2019-05-12T22:52:02.802Z,101334.80
2019-05-12T22:58:10.880Z,101344.37
2019-05-12T23:04:14.250Z,101344.73
2019-05-12T23:10:19.060Z,101343.89
2019-05-12T23:16:27.675Z,101342.55
2019-05-12T23:22:35.224Z,101352.43
2019-05-12T23:28:40.530Z,101353.01
2019-05-12T23:34:45.079Z,101366.63
2019-05-12T23:40:48.919Z,101374.73
2019-05-12T23:46:53.895Z,101369.41
2019-05-12T23:52:58.595Z,101363.73
2019-05-12T23:59:04.496Z,101368.00
